sensor_id;sensor_type;location;lat;lon;timestamp;temperature;humidity
76239;SHT30;65043;48.392;-4.472;2023-03-01T00:01:08;8.41;69.47
76239;SHT30;65043;48.392;-4.472;2023-03-01T00:03:34;8.40;69.52
76239;SHT30;65043;48.392;-4.472;2023-03-01T00:06:00;8.38;69.38
76239;SHT30;65043;48.392;-4.472;2023-03-01T00:08:26;8.40;69.27
76239;SHT30;65043;48.392;-4.472;2023-03-01T00:11:11;8.33;69.10
76239;SHT30;65043;48.392;-4.472;2023-03-01T00:13:38;8.33;69.13
76239;SHT30;65043;48.392;-4.472;2023-03-01T00:16:12;8.30;69.07
76239;SHT30;65043;48.392;-4.472;2023-03-01T00:18:38;8.30;69.30
76239;SHT30;65043;48.392;-4.472;2023-03-01T00:21:04;8.24;69.30
76239;SHT30;65043;48.392;-4.472;2023-03-01T00:23:30;8.26;69.63
76239;SHT30;65043;48.392;-4.472;2023-03-01T00:25:56;8.24;69.34
76239;SHT30;65043;48.392;-4.472;2023-03-01T00:28:21;8.23;69.37
76239;SHT30;65043;48.392;-4.472;2023-03-01T00:30:47;8.22;69.38
76239;SHT30;65043;48.392;-4.472;2023-03-01T00:33:12;8.17;69.28
76239;SHT30;65043;48.392;-4.472;2023-03-01T00:35:38;8.16;69.30
76239;SHT30;65043;48.392;-4.472;2023-03-01T00:38:03;8.16;69.52
76239;SHT30;65043;48.392;-4.472;2023-03-01T00:40:32;8.14;69.44
76239;SHT30;65043;48.392;-4.472;2023-03-01T00:42:58;8.14;69.50
76239;SHT30;65043;48.392;-4.472;2023-03-01T00:45:23;8.16;69.56
76239;SHT30;65043;48.392;-4.472;2023-03-01T00:47:49;8.14;69.30
76239;SHT30;65043;48.392;-4.472;2023-03-01T00:50:15;8.13;69.29
76239;SHT30;65043;48.392;-4.472;2023-03-01T00:52:41;8.14;69.30
76239;SHT30;65043;48.392;-4.472;2023-03-01T00:55:06;8.16;69.06
76239;SHT30;65043;48.392;-4.472;2023-03-01T00:57:32;8.13;68.90
76239;SHT30;65043;48.392;-4.472;2023-03-01T00:59:58;8.13;68.82
76239;SHT30;65043;48.392;-4.472;2023-03-01T01:02:24;8.12;68.73
76239;SHT30;65043;48.392;-4.472;2023-03-01T01:04:49;8.13;68.81
76239;SHT30;65043;48.392;-4.472;2023-03-01T01:07:15;8.14;68.65
76239;SHT30;65043;48.392;-4.472;2023-03-01T01:09:41;8.12;68.63
76239;SHT30;65043;48.392;-4.472;2023-03-01T01:12:07;8.10;68.55
76239;SHT30;65043;48.392;-4.472;2023-03-01T01:14:33;8.07;68.59
76239;SHT30;65043;48.392;-4.472;2023-03-01T01:16:58;8.05;68.67
76239;SHT30;65043;48.392;-4.472;2023-03-01T01:19:24;8.03;68.65
76239;SHT30;65043;48.392;-4.472;2023-03-01T01:21:50;8.05;68.59
76239;SHT30;65043;48.392;-4.472;2023-03-01T01:24:16;8.03;68.57
76239;SHT30;65043;48.392;-4.472;2023-03-01T01:26:42;8.02;68.49
76239;SHT30;65043;48.392;-4.472;2023-03-01T01:29:08;7.96;68.40
76239;SHT30;65043;48.392;-4.472;2023-03-01T01:31:35;7.97;68.68
76239;SHT30;65043;48.392;-4.472;2023-03-01T01:34:03;7.96;68.28
76239;SHT30;65043;48.392;-4.472;2023-03-01T01:36:30;7.97;68.24
76239;SHT30;65043;48.392;-4.472;2023-03-01T01:38:56;7.93;68.36
76239;SHT30;65043;48.392;-4.472;2023-03-01T01:41:23;7.92;68.15
76239;SHT30;65043;48.392;-4.472;2023-03-01T01:44:25;7.89;68.28
76239;SHT30;65043;48.392;-4.472;2023-03-01T01:57:11;7.81;64.83
76239;SHT30;65043;48.392;-4.472;2023-03-01T01:59:38;7.78;64.33
76239;SHT30;65043;48.392;-4.472;2023-03-01T02:02:04;7.76;64.26
76239;SHT30;65043;48.392;-4.472;2023-03-01T02:04:31;7.78;64.08
76239;SHT30;65043;48.392;-4.472;2023-03-01T02:07:18;7.71;63.77
76239;SHT30;65043;48.392;-4.472;2023-03-01T02:09:50;7.68;63.75
76239;SHT30;65043;48.392;-4.472;2023-03-01T02:12:20;7.62;63.39
76239;SHT30;65043;48.392;-4.472;2023-03-01T02:14:46;7.61;63.23
76239;SHT30;65043;48.392;-4.472;2023-03-01T02:17:15;7.58;63.22
76239;SHT30;65043;48.392;-4.472;2023-03-01T02:22:28;7.52;63.31
76239;SHT30;65043;48.392;-4.472;2023-03-01T02:27:36;7.45;63.03
76239;SHT30;65043;48.392;-4.472;2023-03-01T02:30:04;7.44;62.93
76239;SHT30;65043;48.392;-4.472;2023-03-01T02:32:30;7.41;62.93
76239;SHT30;65043;48.392;-4.472;2023-03-01T02:34:56;7.35;62.87
76239;SHT30;65043;48.392;-4.472;2023-03-01T02:37:23;7.34;62.66
76239;SHT30;65043;48.392;-4.472;2023-03-01T02:39:55;7.28;62.76
76239;SHT30;65043;48.392;-4.472;2023-03-01T02:42:26;7.25;62.26
76239;SHT30;65043;48.392;-4.472;2023-03-01T02:44:54;7.24;62.09
76239;SHT30;65043;48.392;-4.472;2023-03-01T02:47:20;7.17;62.22
76239;SHT30;65043;48.392;-4.472;2023-03-01T02:49:45;7.18;62.05
76239;SHT30;65043;48.392;-4.472;2023-03-01T02:52:46;7.10;62.17
76239;SHT30;65043;48.392;-4.472;2023-03-01T02:55:18;7.06;62.05
76239;SHT30;65043;48.392;-4.472;2023-03-01T02:57:46;7.01;62.08
76239;SHT30;65043;48.392;-4.472;2023-03-01T03:00:19;6.97;62.48
76239;SHT30;65043;48.392;-4.472;2023-03-01T03:02:50;6.94;62.43
76239;SHT30;65043;48.392;-4.472;2023-03-01T03:05:22;6.93;62.71
76239;SHT30;65043;48.392;-4.472;2023-03-01T03:07:49;6.90;62.55
76239;SHT30;65043;48.392;-4.472;2023-03-01T03:10:18;6.87;62.57
76239;SHT30;65043;48.392;-4.472;2023-03-01T03:12:49;6.82;62.75
76239;SHT30;65043;48.392;-4.472;2023-03-01T03:15:14;6.83;62.99
76239;SHT30;65043;48.392;-4.472;2023-03-01T03:17:41;6.79;63.06
76239;SHT30;65043;48.392;-4.472;2023-03-01T03:20:09;6.76;63.13
76239;SHT30;65043;48.392;-4.472;2023-03-01T03:22:38;6.75;63.24
76239;SHT30;65043;48.392;-4.472;2023-03-01T03:25:05;6.73;63.12
76239;SHT30;65043;48.392;-4.472;2023-03-01T03:27:38;6.72;63.36
76239;SHT30;65043;48.392;-4.472;2023-03-01T03:30:07;6.71;63.40
76239;SHT30;65043;48.392;-4.472;2023-03-01T03:32:38;6.65;63.54
76239;SHT30;65043;48.392;-4.472;2023-03-01T03:35:04;6.65;63.20
76239;SHT30;65043;48.392;-4.472;2023-03-01T03:37:41;6.65;63.41
76239;SHT30;65043;48.392;-4.472;2023-03-01T03:40:26;6.62;63.58
76239;SHT30;65043;48.392;-4.472;2023-03-01T03:42:52;6.63;63.72
76239;SHT30;65043;48.392;-4.472;2023-03-01T03:45:18;6.63;63.49
76239;SHT30;65043;48.392;-4.472;2023-03-01T03:47:44;6.62;63.06
76239;SHT30;65043;48.392;-4.472;2023-03-01T03:50:11;6.62;62.91
76239;SHT30;65043;48.392;-4.472;2023-03-01T03:52:37;6.63;62.95
76239;SHT30;65043;48.392;-4.472;2023-03-01T03:55:03;6.61;62.69
76239;SHT30;65043;48.392;-4.472;2023-03-01T03:57:29;6.61;62.63
76239;SHT30;65043;48.392;-4.472;2023-03-01T03:59:54;6.61;62.71
76239;SHT30;65043;48.392;-4.472;2023-03-01T04:02:19;6.63;62.26
76239;SHT30;65043;48.392;-4.472;2023-03-01T04:04:47;6.59;62.27
76239;SHT30;65043;48.392;-4.472;2023-03-01T04:07:15;6.59;62.05
76239;SHT30;65043;48.392;-4.472;2023-03-01T04:09:41;6.62;61.47
76239;SHT30;65043;48.392;-4.472;2023-03-01T04:12:07;6.56;61.63
76239;SHT30;65043;48.392;-4.472;2023-03-01T04:14:33;6.59;61.65
76239;SHT30;65043;48.392;-4.472;2023-03-01T04:16:58;6.56;61.58
76239;SHT30;65043;48.392;-4.472;2023-03-01T04:19:24;6.53;61.62
76239;SHT30;65043;48.392;-4.472;2023-03-01T04:21:50;6.55;61.37
76239;SHT30;65043;48.392;-4.472;2023-03-01T04:24:15;6.49;61.40
76239;SHT30;65043;48.392;-4.472;2023-03-01T04:26:41;6.49;61.11
76239;SHT30;65043;48.392;-4.472;2023-03-01T04:29:07;6.48;61.03
76239;SHT30;65043;48.392;-4.472;2023-03-01T04:31:32;6.50;61.14
76239;SHT30;65043;48.392;-4.472;2023-03-01T04:33:57;6.49;61.14
76239;SHT30;65043;48.392;-4.472;2023-03-01T04:36:26;6.45;60.54
76239;SHT30;65043;48.392;-4.472;2023-03-01T04:38:52;6.45;61.11
76239;SHT30;65043;48.392;-4.472;2023-03-01T04:41:20;6.41;60.55
76239;SHT30;65043;48.392;-4.472;2023-03-01T04:43:46;6.38;60.55
76239;SHT30;65043;48.392;-4.472;2023-03-01T04:46:13;6.36;60.47
76239;SHT30;65043;48.392;-4.472;2023-03-01T04:48:41;6.36;60.49
76239;SHT30;65043;48.392;-4.472;2023-03-01T04:51:07;6.32;60.52
76239;SHT30;65043;48.392;-4.472;2023-03-01T04:53:34;6.32;60.72
76239;SHT30;65043;48.392;-4.472;2023-03-01T04:56:01;6.34;60.72
76239;SHT30;65043;48.392;-4.472;2023-03-01T04:58:27;6.28;60.29
76239;SHT30;65043;48.392;-4.472;2023-03-01T05:00:54;6.26;60.47
76239;SHT30;65043;48.392;-4.472;2023-03-01T05:03:20;6.28;60.45
76239;SHT30;65043;48.392;-4.472;2023-03-01T05:05:48;6.24;60.16
76239;SHT30;65043;48.392;-4.472;2023-03-01T05:08:14;6.21;60.17
76239;SHT30;65043;48.392;-4.472;2023-03-01T05:10:49;6.20;60.15
76239;SHT30;65043;48.392;-4.472;2023-03-01T05:13:15;6.21;60.29
76239;SHT30;65043;48.392;-4.472;2023-03-01T05:15:56;6.17;60.25
76239;SHT30;65043;48.392;-4.472;2023-03-01T05:18:22;6.14;60.21
76239;SHT30;65043;48.392;-4.472;2023-03-01T05:20:54;6.13;60.38
76239;SHT30;65043;48.392;-4.472;2023-03-01T05:23:23;6.13;60.04
76239;SHT30;65043;48.392;-4.472;2023-03-01T05:25:48;6.10;60.28
76239;SHT30;65043;48.392;-4.472;2023-03-01T05:28:18;6.07;60.20
76239;SHT30;65043;48.392;-4.472;2023-03-01T05:30:46;6.04;60.17
76239;SHT30;65043;48.392;-4.472;2023-03-01T05:33:11;6.03;60.11
76239;SHT30;65043;48.392;-4.472;2023-03-01T05:35:43;6.01;60.09
76239;SHT30;65043;48.392;-4.472;2023-03-01T05:38:12;6.00;60.16
76239;SHT30;65043;48.392;-4.472;2023-03-01T05:40:42;6.00;60.15
76239;SHT30;65043;48.392;-4.472;2023-03-01T05:43:08;5.95;60.08
76239;SHT30;65043;48.392;-4.472;2023-03-01T05:45:36;5.95;60.14
76239;SHT30;65043;48.392;-4.472;2023-03-01T05:48:02;5.90;60.01
76239;SHT30;65043;48.392;-4.472;2023-03-01T05:50:29;5.90;60.13
76239;SHT30;65043;48.392;-4.472;2023-03-01T05:53:01;5.87;60.06
76239;SHT30;65043;48.392;-4.472;2023-03-01T05:55:29;5.90;60.16
76239;SHT30;65043;48.392;-4.472;2023-03-01T05:57:54;5.86;60.24
76239;SHT30;65043;48.392;-4.472;2023-03-01T06:00:21;5.87;60.24
76239;SHT30;65043;48.392;-4.472;2023-03-01T06:02:49;5.81;60.18
76239;SHT30;65043;48.392;-4.472;2023-03-01T06:05:16;5.78;60.16
76239;SHT30;65043;48.392;-4.472;2023-03-01T06:07:41;5.78;60.22
76239;SHT30;65043;48.392;-4.472;2023-03-01T06:10:08;5.74;60.08
76239;SHT30;65043;48.392;-4.472;2023-03-01T06:12:36;5.76;60.05
76239;SHT30;65043;48.392;-4.472;2023-03-01T06:15:02;5.74;60.22
76239;SHT30;65043;48.392;-4.472;2023-03-01T06:17:29;5.76;59.97
76239;SHT30;65043;48.392;-4.472;2023-03-01T06:19:55;5.73;59.96
76239;SHT30;65043;48.392;-4.472;2023-03-01T06:22:21;5.70;59.96
76239;SHT30;65043;48.392;-4.472;2023-03-01T06:24:46;5.67;59.92
76239;SHT30;65043;48.392;-4.472;2023-03-01T06:27:11;5.63;59.94
76239;SHT30;65043;48.392;-4.472;2023-03-01T06:29:37;5.62;59.82
76239;SHT30;65043;48.392;-4.472;2023-03-01T06:32:03;5.63;60.20
76239;SHT30;65043;48.392;-4.472;2023-03-01T06:34:29;5.62;60.11
76239;SHT30;65043;48.392;-4.472;2023-03-01T06:36:54;5.65;59.80
76239;SHT30;65043;48.392;-4.472;2023-03-01T06:39:19;5.65;60.04
76239;SHT30;65043;48.392;-4.472;2023-03-01T06:41:45;5.62;59.97
76239;SHT30;65043;48.392;-4.472;2023-03-01T06:44:11;5.60;59.81
76239;SHT30;65043;48.392;-4.472;2023-03-01T06:46:36;5.62;59.81
76239;SHT30;65043;48.392;-4.472;2023-03-01T06:49:02;5.59;59.60
76239;SHT30;65043;48.392;-4.472;2023-03-01T06:51:29;5.57;59.61
76239;SHT30;65043;48.392;-4.472;2023-03-01T06:53:55;5.57;59.56
76239;SHT30;65043;48.392;-4.472;2023-03-01T06:56:20;5.59;59.52
76239;SHT30;65043;48.392;-4.472;2023-03-01T06:58:46;5.59;59.41
76239;SHT30;65043;48.392;-4.472;2023-03-01T07:01:11;5.55;59.15
76239;SHT30;65043;48.392;-4.472;2023-03-01T07:03:36;5.55;59.43
76239;SHT30;65043;48.392;-4.472;2023-03-01T07:06:02;5.55;59.40
76239;SHT30;65043;48.392;-4.472;2023-03-01T07:08:27;5.53;59.40
76239;SHT30;65043;48.392;-4.472;2023-03-01T07:10:57;5.55;59.18
76239;SHT30;65043;48.392;-4.472;2023-03-01T07:13:22;5.52;59.04
76239;SHT30;65043;48.392;-4.472;2023-03-01T07:15:48;5.55;59.09
76239;SHT30;65043;48.392;-4.472;2023-03-01T07:18:13;5.52;59.25
76239;SHT30;65043;48.392;-4.472;2023-03-01T07:20:38;5.52;59.24
76239;SHT30;65043;48.392;-4.472;2023-03-01T07:23:05;5.52;59.41
76239;SHT30;65043;48.392;-4.472;2023-03-01T07:25:32;5.52;59.00
76239;SHT30;65043;48.392;-4.472;2023-03-01T07:27:57;5.52;58.86
76239;SHT30;65043;48.392;-4.472;2023-03-01T07:30:23;5.52;58.89
76239;SHT30;65043;48.392;-4.472;2023-03-01T07:32:51;5.52;58.96
76239;SHT30;65043;48.392;-4.472;2023-03-01T07:35:17;5.50;58.93
76239;SHT30;65043;48.392;-4.472;2023-03-01T07:37:43;5.50;58.89
76239;SHT30;65043;48.392;-4.472;2023-03-01T07:40:10;5.52;58.72
76239;SHT30;65043;48.392;-4.472;2023-03-01T07:42:36;5.53;58.96
76239;SHT30;65043;48.392;-4.472;2023-03-01T07:45:01;5.56;58.67
76239;SHT30;65043;48.392;-4.472;2023-03-01T07:47:27;5.59;58.64
76239;SHT30;65043;48.392;-4.472;2023-03-01T07:49:52;5.60;58.58
76239;SHT30;65043;48.392;-4.472;2023-03-01T07:52:17;5.62;58.40
76239;SHT30;65043;48.392;-4.472;2023-03-01T07:54:43;5.60;58.58
76239;SHT30;65043;48.392;-4.472;2023-03-01T07:57:11;5.62;58.68
76239;SHT30;65043;48.392;-4.472;2023-03-01T07:59:37;5.63;58.27
76239;SHT30;65043;48.392;-4.472;2023-03-01T08:02:02;5.63;58.12
76239;SHT30;65043;48.392;-4.472;2023-03-01T08:04:28;5.65;58.36
76239;SHT30;65043;48.392;-4.472;2023-03-01T08:06:54;5.65;58.25
76239;SHT30;65043;48.392;-4.472;2023-03-01T08:09:21;5.65;58.22
76239;SHT30;65043;48.392;-4.472;2023-03-01T08:11:46;5.67;58.20
76239;SHT30;65043;48.392;-4.472;2023-03-01T08:14:11;5.66;58.35
76239;SHT30;65043;48.392;-4.472;2023-03-01T08:16:37;5.67;58.31
76239;SHT30;65043;48.392;-4.472;2023-03-01T08:19:07;5.71;58.48
76239;SHT30;65043;48.392;-4.472;2023-03-01T08:21:33;5.71;58.19
76239;SHT30;65043;48.392;-4.472;2023-03-01T08:24:03;5.77;58.40
76239;SHT30;65043;48.392;-4.472;2023-03-01T08:26:28;5.80;58.54
76239;SHT30;65043;48.392;-4.472;2023-03-01T08:28:54;5.83;58.58
76239;SHT30;65043;48.392;-4.472;2023-03-01T08:31:29;5.86;58.49
76239;SHT30;65043;48.392;-4.472;2023-03-01T08:33:57;5.86;58.47
76239;SHT30;65043;48.392;-4.472;2023-03-01T08:36:28;5.89;58.54
76239;SHT30;65043;48.392;-4.472;2023-03-01T08:38:54;5.95;58.69
76239;SHT30;65043;48.392;-4.472;2023-03-01T08:41:20;5.97;58.43
76239;SHT30;65043;48.392;-4.472;2023-03-01T08:43:45;6.00;58.42
76239;SHT30;65043;48.392;-4.472;2023-03-01T08:46:12;6.08;58.39
76239;SHT30;65043;48.392;-4.472;2023-03-01T08:48:38;6.08;58.63
76239;SHT30;65043;48.392;-4.472;2023-03-01T08:51:11;6.14;58.64
76239;SHT30;65043;48.392;-4.472;2023-03-01T08:53:37;6.17;58.61
76239;SHT30;65043;48.392;-4.472;2023-03-01T08:56:03;6.20;58.53
76239;SHT30;65043;48.392;-4.472;2023-03-01T08:58:29;6.24;58.64
76239;SHT30;65043;48.392;-4.472;2023-03-01T09:00:55;6.31;58.55
76239;SHT30;65043;48.392;-4.472;2023-03-01T09:03:22;6.34;58.61
76239;SHT30;65043;48.392;-4.472;2023-03-01T09:05:49;6.39;58.38
76239;SHT30;65043;48.392;-4.472;2023-03-01T09:08:16;6.41;58.17
76239;SHT30;65043;48.392;-4.472;2023-03-01T09:10:41;6.48;58.41
76239;SHT30;65043;48.392;-4.472;2023-03-01T09:13:07;6.50;58.43
76239;SHT30;65043;48.392;-4.472;2023-03-01T09:15:32;6.53;57.75
76239;SHT30;65043;48.392;-4.472;2023-03-01T09:17:59;6.61;58.13
76239;SHT30;65043;48.392;-4.472;2023-03-01T09:20:24;6.62;58.09
76239;SHT30;65043;48.392;-4.472;2023-03-01T09:22:50;6.65;57.90
76239;SHT30;65043;48.392;-4.472;2023-03-01T09:25:15;6.69;58.05
76239;SHT30;65043;48.392;-4.472;2023-03-01T09:27:41;6.72;58.12
76239;SHT30;65043;48.392;-4.472;2023-03-01T09:30:08;6.75;58.01
76239;SHT30;65043;48.392;-4.472;2023-03-01T09:32:33;6.77;58.10
76239;SHT30;65043;48.392;-4.472;2023-03-01T09:34:59;6.83;58.00
76239;SHT30;65043;48.392;-4.472;2023-03-01T09:37:31;6.87;58.16
76239;SHT30;65043;48.392;-4.472;2023-03-01T09:39:57;6.92;58.29
76239;SHT30;65043;48.392;-4.472;2023-03-01T09:42:22;6.93;57.64
76239;SHT30;65043;48.392;-4.472;2023-03-01T09:44:52;6.94;57.92
76239;SHT30;65043;48.392;-4.472;2023-03-01T09:47:40;6.97;57.94
76239;SHT30;65043;48.392;-4.472;2023-03-01T09:50:13;7.01;58.01
76239;SHT30;65043;48.392;-4.472;2023-03-01T09:53:04;7.01;57.81
76239;SHT30;65043;48.392;-4.472;2023-03-01T09:55:40;7.03;57.76
76239;SHT30;65043;48.392;-4.472;2023-03-01T10:00:44;7.11;57.91
76239;SHT30;65043;48.392;-4.472;2023-03-01T10:03:26;7.13;57.87
76239;SHT30;65043;48.392;-4.472;2023-03-01T10:08:34;7.18;58.26
76239;SHT30;65043;48.392;-4.472;2023-03-01T10:11:04;7.21;58.07
76239;SHT30;65043;48.392;-4.472;2023-03-01T10:16:15;7.35;58.13
76239;SHT30;65043;48.392;-4.472;2023-03-01T10:18:46;7.40;57.75
76239;SHT30;65043;48.392;-4.472;2023-03-01T10:21:18;7.45;57.59
76239;SHT30;65043;48.392;-4.472;2023-03-01T10:23:44;7.52;57.70
76239;SHT30;65043;48.392;-4.472;2023-03-01T10:31:23;7.69;57.81
76239;SHT30;65043;48.392;-4.472;2023-03-01T10:33:53;7.82;57.93
76239;SHT30;65043;48.392;-4.472;2023-03-01T10:36:21;7.87;57.65
76239;SHT30;65043;48.392;-4.472;2023-03-01T10:38:57;7.92;57.72
76239;SHT30;65043;48.392;-4.472;2023-03-01T10:41:25;8.05;57.18
76239;SHT30;65043;48.392;-4.472;2023-03-01T10:43:57;8.07;57.45
76239;SHT30;65043;48.392;-4.472;2023-03-01T10:49:13;8.14;57.22
76239;SHT30;65043;48.392;-4.472;2023-03-01T10:51:41;8.19;57.20
76239;SHT30;65043;48.392;-4.472;2023-03-01T10:54:28;8.27;57.01
76239;SHT30;65043;48.392;-4.472;2023-03-01T10:56:57;8.38;56.75
76239;SHT30;65043;48.392;-4.472;2023-03-01T10:59:38;8.45;56.46
76239;SHT30;65043;48.392;-4.472;2023-03-01T11:02:16;8.55;56.76
76239;SHT30;65043;48.392;-4.472;2023-03-01T11:04:57;8.65;56.76
76239;SHT30;65043;48.392;-4.472;2023-03-01T11:07:23;8.71;56.49
76239;SHT30;65043;48.392;-4.472;2023-03-01T11:09:48;8.69;57.03
76239;SHT30;65043;48.392;-4.472;2023-03-01T11:12:15;8.72;57.00
76239;SHT30;65043;48.392;-4.472;2023-03-01T11:14:50;8.75;56.66
76239;SHT30;65043;48.392;-4.472;2023-03-01T11:17:30;8.79;56.54
76239;SHT30;65043;48.392;-4.472;2023-03-01T11:23:15;8.93;56.77
76239;SHT30;65043;48.392;-4.472;2023-03-01T11:26:02;8.99;56.82
76239;SHT30;65043;48.392;-4.472;2023-03-01T11:28:30;9.04;56.32
76239;SHT30;65043;48.392;-4.472;2023-03-01T11:31:02;9.09;56.47
76239;SHT30;65043;48.392;-4.472;2023-03-01T11:36:02;9.13;56.44
76239;SHT30;65043;48.392;-4.472;2023-03-01T11:38:31;9.19;56.56
76239;SHT30;65043;48.392;-4.472;2023-03-01T11:41:15;9.19;56.17
76239;SHT30;65043;48.392;-4.472;2023-03-01T11:56:39;9.26;56.04
76239;SHT30;65043;48.392;-4.472;2023-03-01T12:01:49;9.40;56.51
76239;SHT30;65043;48.392;-4.472;2023-03-01T12:14:55;9.39;55.92
76239;SHT30;65043;48.392;-4.472;2023-03-01T12:31:32;9.95;54.97
76239;SHT30;65043;48.392;-4.472;2023-03-01T12:37:25;10.22;54.46
76239;SHT30;65043;48.392;-4.472;2023-03-01T12:51:30;10.48;53.52
76239;SHT30;65043;48.392;-4.472;2023-03-01T12:53:58;10.52;54.01
76239;SHT30;65043;48.392;-4.472;2023-03-01T12:56:30;10.55;53.30
76239;SHT30;65043;48.392;-4.472;2023-03-01T13:17:58;10.93;53.75
76239;SHT30;65043;48.392;-4.472;2023-03-01T13:26:14;10.67;54.10
76239;SHT30;65043;48.392;-4.472;2023-03-01T13:28:48;10.63;53.82
76239;SHT30;65043;48.392;-4.472;2023-03-01T13:39:18;10.46;54.33
76239;SHT30;65043;48.392;-4.472;2023-03-01T13:41:54;10.41;54.58
76239;SHT30;65043;48.392;-4.472;2023-03-01T13:46:53;10.38;55.69
76239;SHT30;65043;48.392;-4.472;2023-03-01T13:49:27;10.38;55.40
76239;SHT30;65043;48.392;-4.472;2023-03-01T13:51:54;10.35;55.40
76239;SHT30;65043;48.392;-4.472;2023-03-01T13:54:31;10.28;55.56
76239;SHT30;65043;48.392;-4.472;2023-03-01T13:56:59;10.22;55.53
76239;SHT30;65043;48.392;-4.472;2023-03-01T13:59:25;10.16;55.73
76239;SHT30;65043;48.392;-4.472;2023-03-01T14:01:53;10.18;56.11
76239;SHT30;65043;48.392;-4.472;2023-03-01T14:04:30;10.15;56.10
76239;SHT30;65043;48.392;-4.472;2023-03-01T14:07:21;10.12;56.13
76239;SHT30;65043;48.392;-4.472;2023-03-01T14:09:57;10.06;56.26
76239;SHT30;65043;48.392;-4.472;2023-03-01T14:12:46;10.06;56.49
76239;SHT30;65043;48.392;-4.472;2023-03-01T14:20:26;10.06;57.19
76239;SHT30;65043;48.392;-4.472;2023-03-01T14:22:58;10.09;57.33
76239;SHT30;65043;48.392;-4.472;2023-03-01T14:25:33;10.12;57.16
76239;SHT30;65043;48.392;-4.472;2023-03-01T14:28:18;10.05;57.03
76239;SHT30;65043;48.392;-4.472;2023-03-01T14:33:37;9.91;57.90
76239;SHT30;65043;48.392;-4.472;2023-03-01T14:36:09;9.84;58.12
76239;SHT30;65043;48.392;-4.472;2023-03-01T14:38:40;9.81;58.61
76239;SHT30;65043;48.392;-4.472;2023-03-01T14:41:10;9.78;58.65
76239;SHT30;65043;48.392;-4.472;2023-03-01T14:43:43;9.73;59.06
76239;SHT30;65043;48.392;-4.472;2023-03-01T14:46:24;9.69;59.12
76239;SHT30;65043;48.392;-4.472;2023-03-01T14:48:53;9.70;59.14
76239;SHT30;65043;48.392;-4.472;2023-03-01T14:51:19;9.67;59.31
76239;SHT30;65043;48.392;-4.472;2023-03-01T14:53:45;9.64;59.74
76239;SHT30;65043;48.392;-4.472;2023-03-01T14:56:15;9.63;59.75
76239;SHT30;65043;48.392;-4.472;2023-03-01T14:58:43;9.67;59.43
76239;SHT30;65043;48.392;-4.472;2023-03-01T15:01:15;9.67;59.04
76239;SHT30;65043;48.392;-4.472;2023-03-01T15:03:47;9.63;58.61
76239;SHT30;65043;48.392;-4.472;2023-03-01T15:06:21;9.66;58.65
76239;SHT30;65043;48.392;-4.472;2023-03-01T15:08:50;9.67;59.21
76239;SHT30;65043;48.392;-4.472;2023-03-01T15:11:23;9.67;59.13
76239;SHT30;65043;48.392;-4.472;2023-03-01T15:13:52;9.69;58.75
76239;SHT30;65043;48.392;-4.472;2023-03-01T15:16:39;9.66;59.18
76239;SHT30;65043;48.392;-4.472;2023-03-01T15:19:06;9.71;58.98
76239;SHT30;65043;48.392;-4.472;2023-03-01T15:21:37;9.67;58.08
76239;SHT30;65043;48.392;-4.472;2023-03-01T15:26:49;9.74;57.20
76239;SHT30;65043;48.392;-4.472;2023-03-01T15:29:18;9.74;56.95
76239;SHT30;65043;48.392;-4.472;2023-03-01T15:32:36;9.73;56.27
76239;SHT30;65043;48.392;-4.472;2023-03-01T15:34:42;9.71;56.53
76239;SHT30;65043;48.392;-4.472;2023-03-01T15:37:59;9.75;56.39
76239;SHT30;65043;48.392;-4.472;2023-03-01T15:40:29;9.77;56.34
76239;SHT30;65043;48.392;-4.472;2023-03-01T15:42:59;9.73;56.26
76239;SHT30;65043;48.392;-4.472;2023-03-01T15:45:27;9.69;56.21
76239;SHT30;65043;48.392;-4.472;2023-03-01T15:47:58;9.69;56.50
76239;SHT30;65043;48.392;-4.472;2023-03-01T15:50:29;9.69;56.77
76239;SHT30;65043;48.392;-4.472;2023-03-01T15:52:55;9.63;57.31
76239;SHT30;65043;48.392;-4.472;2023-03-01T15:55:30;9.60;57.56
76239;SHT30;65043;48.392;-4.472;2023-03-01T16:00:59;9.54;58.45
76239;SHT30;65043;48.392;-4.472;2023-03-01T16:03:25;9.56;58.94
76239;SHT30;65043;48.392;-4.472;2023-03-01T16:05:50;9.53;58.65
76239;SHT30;65043;48.392;-4.472;2023-03-01T16:08:17;9.50;58.85
76239;SHT30;65043;48.392;-4.472;2023-03-01T16:10:43;9.46;58.51
76239;SHT30;65043;48.392;-4.472;2023-03-01T16:13:12;9.43;58.97
76239;SHT30;65043;48.392;-4.472;2023-03-01T16:15:38;9.43;59.17
76239;SHT30;65043;48.392;-4.472;2023-03-01T16:18:05;9.44;58.71
76239;SHT30;65043;48.392;-4.472;2023-03-01T16:20:31;9.48;58.89
76239;SHT30;65043;48.392;-4.472;2023-03-01T16:22:58;9.46;58.73
76239;SHT30;65043;48.392;-4.472;2023-03-01T16:25:25;9.46;58.25
76239;SHT30;65043;48.392;-4.472;2023-03-01T16:27:51;9.47;58.13
76239;SHT30;65043;48.392;-4.472;2023-03-01T16:30:19;9.48;58.36
76239;SHT30;65043;48.392;-4.472;2023-03-01T16:32:46;9.44;57.76
76239;SHT30;65043;48.392;-4.472;2023-03-01T16:35:13;9.46;57.41
76239;SHT30;65043;48.392;-4.472;2023-03-01T16:37:40;9.44;57.46
76239;SHT30;65043;48.392;-4.472;2023-03-01T16:40:11;9.46;57.21
76239;SHT30;65043;48.392;-4.472;2023-03-01T16:42:40;9.50;57.55
76239;SHT30;65043;48.392;-4.472;2023-03-01T16:45:07;9.43;57.52
76239;SHT30;65043;48.392;-4.472;2023-03-01T16:47:34;9.42;57.78
76239;SHT30;65043;48.392;-4.472;2023-03-01T16:49:59;9.35;56.45
76239;SHT30;65043;48.392;-4.472;2023-03-01T16:52:25;9.35;57.32
76239;SHT30;65043;48.392;-4.472;2023-03-01T16:54:51;9.39;57.92
76239;SHT30;65043;48.392;-4.472;2023-03-01T16:57:16;9.43;57.90
76239;SHT30;65043;48.392;-4.472;2023-03-01T16:59:42;9.44;58.05
76239;SHT30;65043;48.392;-4.472;2023-03-01T17:02:12;9.46;58.07
76239;SHT30;65043;48.392;-4.472;2023-03-01T17:04:38;9.48;58.18
76239;SHT30;65043;48.392;-4.472;2023-03-01T17:07:05;9.44;58.24
76239;SHT30;65043;48.392;-4.472;2023-03-01T17:09:34;9.42;58.45
76239;SHT30;65043;48.392;-4.472;2023-03-01T17:12:00;9.43;58.46
76239;SHT30;65043;48.392;-4.472;2023-03-01T17:14:25;9.39;58.70
76239;SHT30;65043;48.392;-4.472;2023-03-01T17:16:51;9.39;58.99
76239;SHT30;65043;48.392;-4.472;2023-03-01T17:19:18;9.36;58.98
76239;SHT30;65043;48.392;-4.472;2023-03-01T17:21:44;9.33;59.01
76239;SHT30;65043;48.392;-4.472;2023-03-01T17:24:10;9.30;59.11
76239;SHT30;65043;48.392;-4.472;2023-03-01T17:26:36;9.29;59.11
76239;SHT30;65043;48.392;-4.472;2023-03-01T17:29:03;9.27;59.16
76239;SHT30;65043;48.392;-4.472;2023-03-01T17:31:29;9.25;58.56
76239;SHT30;65043;48.392;-4.472;2023-03-01T17:33:55;9.22;59.04
76239;SHT30;65043;48.392;-4.472;2023-03-01T17:36:21;9.23;58.58
76239;SHT30;65043;48.392;-4.472;2023-03-01T17:38:46;9.25;58.01
76239;SHT30;65043;48.392;-4.472;2023-03-01T17:41:13;9.29;57.95
76239;SHT30;65043;48.392;-4.472;2023-03-01T17:43:42;9.29;57.75
76239;SHT30;65043;48.392;-4.472;2023-03-01T17:46:07;9.23;58.05
76239;SHT30;65043;48.392;-4.472;2023-03-01T17:48:33;9.22;58.03
76239;SHT30;65043;48.392;-4.472;2023-03-01T17:50:59;9.20;58.09
76239;SHT30;65043;48.392;-4.472;2023-03-01T17:53:24;9.19;58.17
76239;SHT30;65043;48.392;-4.472;2023-03-01T17:55:59;9.19;58.09
76239;SHT30;65043;48.392;-4.472;2023-03-01T17:58:24;9.15;57.47
76239;SHT30;65043;48.392;-4.472;2023-03-01T18:00:50;9.13;58.08